FBU701 NTAA-KLAX
Flight info
| Callsign | FBU701 |
|---|---|
| Flight time | N/A |
| Altitude | 37000 |
| Route | IKELO4W IKELO DCT MIKAT A220 MAEVA/N0486F390 DCT 10N138W DCT BORIC B454 TONYS B200 FICKY GOATZ2 |
| Aircraft | A35K/H-SDE2E3GHIJ3J4J5LM1ORWXY/LB1D1 |
Departure
| Time | 2026-04-26 22:48 |
|---|---|
| Airport | Fa'a'ā International Airport (NTAA) |
Arrival
| Time | N/A |
|---|---|
| Airport | Los Angeles International Airport (KLAX) |
| Time | Latitude | Longitude | Altitude | Speed | Heading |
|---|---|---|---|---|---|
| 2026-04-26 22:10 | -17.55855 | -149.61005 | 28 ft | 0 kts | 147° |
| 2026-04-26 22:27 | -17.55876 | -149.60991 | 28 ft | 4 kts | 147° |
| 2026-04-26 22:27 | -17.55888 | -149.60985 | 28 ft | 0 kts | 147° |
| 2026-04-26 22:28 | -17.55887 | -149.60985 | 28 ft | 0 kts | 147° |
| 2026-04-26 22:29 | -17.55851 | -149.61009 | 27 ft | 0 kts | 144° |
| 2026-04-26 22:33 | -17.55834 | -149.61022 | 26 ft | 4 kts | 142° |
| 2026-04-26 22:33 | -17.55815 | -149.61037 | 25 ft | 4 kts | 149° |
| 2026-04-26 22:34 | -17.55795 | -149.61047 | 26 ft | 4 kts | 177° |
| 2026-04-26 22:34 | -17.55776 | -149.61044 | 25 ft | 4 kts | 215° |
| 2026-04-26 22:34 | -17.55759 | -149.61027 | 25 ft | 4 kts | 237° |
| 2026-04-26 22:34 | -17.55745 | -149.61003 | 25 ft | 4 kts | 240° |
| 2026-04-26 22:35 | -17.55733 | -149.60983 | 24 ft | 1 kts | 234° |
| 2026-04-26 22:40 | -17.55734 | -149.60984 | 27 ft | 1 kts | 234° |
| 2026-04-26 22:40 | -17.55742 | -149.60995 | 27 ft | 3 kts | 234° |
| 2026-04-26 22:40 | -17.55756 | -149.61015 | 27 ft | 4 kts | 233° |
| 2026-04-26 22:40 | -17.55767 | -149.61042 | 27 ft | 3 kts | 265° |
| 2026-04-26 22:41 | -17.55758 | -149.61067 | 27 ft | 5 kts | 303° |
| 2026-04-26 22:41 | -17.55721 | -149.61102 | 27 ft | 10 kts | 320° |
| 2026-04-26 22:41 | -17.55666 | -149.61138 | 28 ft | 5 kts | 356° |
| 2026-04-26 22:41 | -17.55649 | -149.61123 | 29 ft | 5 kts | 43° |
| 2026-04-26 22:42 | -17.55604 | -149.61061 | 31 ft | 16 kts | 54° |
| 2026-04-26 22:42 | -17.55536 | -149.60962 | 27 ft | 18 kts | 54° |
| 2026-04-26 22:42 | -17.55457 | -149.60849 | 28 ft | 20 kts | 54° |
| 2026-04-26 22:42 | -17.55372 | -149.60725 | 28 ft | 22 kts | 54° |
| 2026-04-26 22:43 | -17.55281 | -149.60593 | 27 ft | 23 kts | 54° |
| 2026-04-26 22:43 | -17.55183 | -149.60450 | 31 ft | 25 kts | 55° |
| 2026-04-26 22:43 | -17.55079 | -149.60299 | 31 ft | 26 kts | 54° |
| 2026-04-26 22:43 | -17.54970 | -149.60141 | 29 ft | 27 kts | 54° |
| 2026-04-26 22:44 | -17.54860 | -149.59982 | 31 ft | 28 kts | 54° |
| 2026-04-26 22:44 | -17.54746 | -149.59816 | 31 ft | 28 kts | 54° |
| 2026-04-26 22:44 | -17.54631 | -149.59648 | 30 ft | 29 kts | 55° |
| 2026-04-26 22:44 | -17.54545 | -149.59522 | 30 ft | 18 kts | 54° |
| 2026-04-26 22:45 | -17.54520 | -149.59435 | 26 ft | 3 kts | 82° |
| 2026-04-26 22:45 | -17.54510 | -149.59423 | 30 ft | 1 kts | 28° |
| 2026-04-26 22:45 | -17.54502 | -149.59426 | 30 ft | 1 kts | 347° |
| 2026-04-26 22:45 | -17.54498 | -149.59433 | 25 ft | 1 kts | 305° |
| 2026-04-26 22:46 | -17.54499 | -149.59438 | 30 ft | 1 kts | 282° |
| 2026-04-26 22:46 | -17.54505 | -149.59456 | 30 ft | 4 kts | 249° |
| 2026-04-26 22:46 | -17.54513 | -149.59470 | 30 ft | 0 kts | 239° |
| 2026-04-26 22:46 | -17.54514 | -149.59472 | 27 ft | 0 kts | 239° |
| 2026-04-26 22:47 | -17.54557 | -149.59541 | 26 ft | 40 kts | 236° |
| 2026-04-26 22:47 | -17.54722 | -149.59781 | 26 ft | 82 kts | 234° |
| 2026-04-26 22:47 | -17.55172 | -149.60436 | 29 ft | 138 kts | 234° |
| 2026-04-26 22:47 | -17.55818 | -149.61379 | 211 ft | 165 kts | 234° |
| 2026-04-26 22:48 | -17.56488 | -149.62742 | 941 ft | 166 kts | 263° |
| 2026-04-26 22:48 | -17.56258 | -149.63954 | 1254 ft | 181 kts | 300° |
| 2026-04-26 22:48 | -17.55660 | -149.64591 | 1329 ft | 193 kts | 329° |
| 2026-04-26 22:48 | -17.54313 | -149.64857 | 1576 ft | 205 kts | 5° |
| 2026-04-26 22:49 | -17.52850 | -149.64656 | 1895 ft | 218 kts | 9° |
| 2026-04-26 22:49 | -17.51332 | -149.64407 | 2408 ft | 222 kts | 9° |
| 2026-04-26 22:49 | -17.49801 | -149.64172 | 2957 ft | 224 kts | 8° |
| 2026-04-26 22:49 | -17.48242 | -149.63945 | 3479 ft | 227 kts | 8° |
| 2026-04-26 22:50 | -17.46667 | -149.63724 | 4040 ft | 229 kts | 7° |
| 2026-04-26 22:50 | -17.45082 | -149.63506 | 4601 ft | 231 kts | 7° |
| 2026-04-26 22:50 | -17.43482 | -149.63289 | 5143 ft | 232 kts | 7° |
| 2026-04-26 22:50 | -17.41881 | -149.63073 | 5725 ft | 232 kts | 7° |
| 2026-04-26 22:51 | -17.40274 | -149.62856 | 6260 ft | 234 kts | 7° |
| 2026-04-26 22:51 | -17.38654 | -149.62638 | 6764 ft | 235 kts | 7° |
| 2026-04-26 22:51 | -17.37023 | -149.62418 | 7255 ft | 237 kts | 7° |
| 2026-04-26 22:51 | -17.35377 | -149.62197 | 7755 ft | 240 kts | 7° |
| 2026-04-26 22:52 | -17.33714 | -149.61973 | 8249 ft | 242 kts | 6° |
| 2026-04-26 22:52 | -17.32037 | -149.61748 | 8761 ft | 244 kts | 6° |
| 2026-04-26 22:52 | -17.30341 | -149.61520 | 9261 ft | 246 kts | 6° |
| 2026-04-26 22:52 | -17.28673 | -149.61132 | 9745 ft | 251 kts | 19° |
| 2026-04-26 22:53 | -17.27118 | -149.60244 | 10047 ft | 263 kts | 34° |
| 2026-04-26 22:53 | -17.25632 | -149.59032 | 10232 ft | 278 kts | 38° |
| 2026-04-26 22:53 | -17.24096 | -149.57713 | 10414 ft | 294 kts | 38° |
| 2026-04-26 22:53 | -17.22471 | -149.56323 | 10602 ft | 309 kts | 38° |
| 2026-04-26 22:54 | -17.20761 | -149.54871 | 10793 ft | 323 kts | 38° |
| 2026-04-26 22:54 | -17.18977 | -149.53364 | 10984 ft | 337 kts | 38° |
| 2026-04-26 22:54 | -17.17111 | -149.51792 | 11170 ft | 350 kts | 38° |
| 2026-04-26 22:54 | -17.15178 | -149.50167 | 11350 ft | 363 kts | 38° |
| 2026-04-26 22:55 | -17.13181 | -149.48488 | 11540 ft | 374 kts | 38° |
| 2026-04-26 22:55 | -17.11137 | -149.46771 | 11859 ft | 380 kts | 38° |
| 2026-04-26 22:55 | -17.09069 | -149.45034 | 12264 ft | 383 kts | 38° |
| 2026-04-26 22:55 | -17.06987 | -149.43287 | 12678 ft | 385 kts | 38° |
| 2026-04-26 22:56 | -17.04883 | -149.41522 | 13092 ft | 388 kts | 38° |
| 2026-04-26 22:56 | -17.02766 | -149.39747 | 13502 ft | 390 kts | 38° |
| 2026-04-26 22:56 | -17.00669 | -149.37989 | 13872 ft | 393 kts | 38° |
| 2026-04-26 22:56 | -16.98636 | -149.36286 | 15321 ft | 345 kts | 38° |
| 2026-04-26 22:57 | -16.96791 | -149.34742 | 16393 ft | 336 kts | 38° |
| 2026-04-26 22:57 | -16.94958 | -149.33206 | 16786 ft | 342 kts | 38° |
| 2026-04-26 22:57 | -16.93072 | -149.31626 | 16961 ft | 353 kts | 38° |
| 2026-04-26 22:57 | -16.91127 | -149.29998 | 17134 ft | 364 kts | 38° |
| 2026-04-26 22:58 | -16.89120 | -149.28318 | 17291 ft | 375 kts | 38° |
| 2026-04-26 22:58 | -16.87062 | -149.26595 | 17455 ft | 385 kts | 38° |
| 2026-04-26 22:58 | -16.84946 | -149.24826 | 17608 ft | 394 kts | 39° |
| 2026-04-26 22:58 | -16.82780 | -149.23021 | 17763 ft | 403 kts | 38° |
| 2026-04-26 22:59 | -16.80455 | -149.21323 | 17904 ft | 412 kts | 31° |
| 2026-04-26 22:59 | -16.77878 | -149.19961 | 18047 ft | 419 kts | 23° |
| 2026-04-26 22:59 | -16.75147 | -149.18825 | 18306 ft | 424 kts | 20° |
| 2026-04-26 22:59 | -16.72363 | -149.17786 | 18607 ft | 426 kts | 19° |
| 2026-04-26 23:00 | -16.69551 | -149.16788 | 18916 ft | 428 kts | 18° |
| 2026-04-26 23:00 | -16.66728 | -149.15796 | 19225 ft | 430 kts | 18° |
| 2026-04-26 23:00 | -16.63888 | -149.14792 | 19528 ft | 432 kts | 19° |
| 2026-04-26 23:00 | -16.61043 | -149.13773 | 19817 ft | 433 kts | 19° |
| 2026-04-26 23:01 | -16.58183 | -149.12738 | 20125 ft | 435 kts | 19° |
| 2026-04-26 23:01 | -16.55354 | -149.11707 | 20422 ft | 437 kts | 19° |
| 2026-04-26 23:01 | -16.52477 | -149.10655 | 20710 ft | 439 kts | 19° |
| 2026-04-26 23:01 | -16.49592 | -149.09598 | 21003 ft | 441 kts | 19° |
| 2026-04-26 23:02 | -16.46691 | -149.08535 | 21285 ft | 442 kts | 19° |
| 2026-04-26 23:02 | -16.43782 | -149.07470 | 21559 ft | 444 kts | 19° |
| 2026-04-26 23:02 | -16.40852 | -149.06399 | 21852 ft | 446 kts | 19° |
| 2026-04-26 23:02 | -16.37913 | -149.05325 | 22128 ft | 448 kts | 19° |
| 2026-04-26 23:03 | -16.34969 | -149.04249 | 22393 ft | 450 kts | 19° |
| 2026-04-26 23:03 | -16.32000 | -149.03165 | 22643 ft | 452 kts | 19° |
| 2026-04-26 23:03 | -16.29027 | -149.02080 | 22919 ft | 454 kts | 19° |
| 2026-04-26 23:03 | -16.26037 | -149.00989 | 23193 ft | 455 kts | 19° |
| 2026-04-26 23:04 | -16.23037 | -148.99895 | 23454 ft | 457 kts | 19° |
| 2026-04-26 23:04 | -16.20034 | -148.98801 | 23675 ft | 459 kts | 19° |
| 2026-04-26 23:04 | -16.17049 | -148.97713 | 23872 ft | 461 kts | 19° |
| 2026-04-26 23:04 | -16.14020 | -148.96609 | 24088 ft | 462 kts | 19° |
| 2026-04-26 23:05 | -16.10975 | -148.95500 | 24296 ft | 464 kts | 19° |
| 2026-04-26 23:05 | -16.07928 | -148.94390 | 24520 ft | 465 kts | 19° |
| 2026-04-26 23:05 | -16.04866 | -148.93276 | 24744 ft | 467 kts | 19° |
| 2026-04-26 23:05 | -16.01796 | -148.92158 | 24937 ft | 468 kts | 19° |
| 2026-04-26 23:06 | -15.98712 | -148.91037 | 25153 ft | 470 kts | 19° |
| 2026-04-26 23:06 | -15.95624 | -148.89914 | 25357 ft | 471 kts | 19° |
| 2026-04-26 23:06 | -15.92516 | -148.88784 | 25555 ft | 473 kts | 19° |
| 2026-04-26 23:06 | -15.89394 | -148.87649 | 25760 ft | 475 kts | 19° |
| 2026-04-26 23:07 | -15.86263 | -148.86512 | 25978 ft | 476 kts | 19° |
| 2026-04-26 23:07 | -15.83132 | -148.85375 | 26182 ft | 478 kts | 19° |
| 2026-04-26 23:07 | -15.79979 | -148.84230 | 26385 ft | 479 kts | 19° |
| 2026-04-26 23:07 | -15.76861 | -148.83098 | 26585 ft | 481 kts | 19° |
| 2026-04-26 23:08 | -15.73700 | -148.81952 | 26781 ft | 483 kts | 19° |
| 2026-04-26 23:08 | -15.70520 | -148.80798 | 26988 ft | 484 kts | 19° |
| 2026-04-26 23:08 | -15.67324 | -148.79640 | 27187 ft | 486 kts | 19° |
| 2026-04-26 23:08 | -15.64149 | -148.78413 | 27389 ft | 488 kts | 22° |
| 2026-04-26 23:09 | -15.60989 | -148.77096 | 27579 ft | 489 kts | 22° |
| 2026-04-26 23:09 | -15.57839 | -148.75747 | 27770 ft | 491 kts | 23° |
| 2026-04-26 23:09 | -15.54678 | -148.74389 | 27962 ft | 493 kts | 23° |
| 2026-04-26 23:09 | -15.51494 | -148.73032 | 28170 ft | 494 kts | 22° |
| 2026-04-26 23:10 | -15.48340 | -148.71701 | 28370 ft | 496 kts | 22° |
| 2026-04-26 23:10 | -15.45134 | -148.70360 | 28562 ft | 498 kts | 22° |
| 2026-04-26 23:10 | -15.41911 | -148.69019 | 28774 ft | 500 kts | 22° |
| 2026-04-26 23:10 | -15.38669 | -148.67675 | 28968 ft | 501 kts | 22° |
| 2026-04-26 23:11 | -15.35423 | -148.66330 | 29168 ft | 503 kts | 22° |
| 2026-04-26 23:11 | -15.32165 | -148.64981 | 29360 ft | 505 kts | 22° |
| 2026-04-26 23:11 | -15.28897 | -148.63628 | 29553 ft | 507 kts | 22° |
| 2026-04-26 23:11 | -15.25612 | -148.62268 | 29762 ft | 508 kts | 22° |
| 2026-04-26 23:12 | -15.22316 | -148.60903 | 29965 ft | 510 kts | 22° |
| 2026-04-26 23:12 | -15.19053 | -148.59552 | 30116 ft | 512 kts | 22° |
| 2026-04-26 23:12 | -15.15737 | -148.58179 | 30305 ft | 514 kts | 22° |
| 2026-04-26 23:12 | -15.12403 | -148.56800 | 30502 ft | 515 kts | 22° |
| 2026-04-26 23:13 | -15.09073 | -148.55422 | 30695 ft | 516 kts | 22° |
| 2026-04-26 23:13 | -15.05733 | -148.54041 | 30884 ft | 517 kts | 22° |
| 2026-04-26 23:13 | -15.02377 | -148.52654 | 31073 ft | 519 kts | 22° |
| 2026-04-26 23:13 | -14.99026 | -148.51271 | 31275 ft | 520 kts | 22° |
| 2026-04-26 23:14 | -14.95663 | -148.49868 | 31456 ft | 521 kts | 22° |
| 2026-04-26 23:14 | -14.92306 | -148.48439 | 31673 ft | 521 kts | 23° |
| 2026-04-26 23:14 | -14.88955 | -148.47000 | 31950 ft | 521 kts | 23° |
| 2026-04-26 23:14 | -14.85659 | -148.45585 | 32214 ft | 520 kts | 23° |
| 2026-04-26 23:15 | -14.82311 | -148.44150 | 32483 ft | 519 kts | 23° |
| 2026-04-26 23:15 | -14.78976 | -148.42726 | 32758 ft | 519 kts | 23° |
| 2026-04-26 23:15 | -14.75636 | -148.41303 | 33031 ft | 518 kts | 23° |
| 2026-04-26 23:15 | -14.72295 | -148.39882 | 33316 ft | 518 kts | 23° |
| 2026-04-26 23:16 | -14.68971 | -148.38470 | 33631 ft | 517 kts | 22° |
| 2026-04-26 23:16 | -14.65640 | -148.37056 | 33927 ft | 516 kts | 23° |
| 2026-04-26 23:16 | -14.62365 | -148.35666 | 34178 ft | 515 kts | 22° |
| 2026-04-26 23:16 | -14.59047 | -148.34258 | 34444 ft | 514 kts | 22° |
| 2026-04-26 23:17 | -14.55733 | -148.32852 | 34723 ft | 513 kts | 22° |
| 2026-04-26 23:17 | -14.52432 | -148.31452 | 35003 ft | 512 kts | 22° |
| 2026-04-26 23:17 | -14.49138 | -148.30056 | 35273 ft | 511 kts | 22° |
| 2026-04-26 23:17 | -14.45848 | -148.28661 | 35530 ft | 510 kts | 22° |
| 2026-04-26 23:18 | -14.42565 | -148.27270 | 35817 ft | 509 kts | 22° |
| 2026-04-26 23:18 | -14.39299 | -148.25886 | 36088 ft | 508 kts | 22° |
| 2026-04-26 23:18 | -14.36026 | -148.24500 | 36342 ft | 507 kts | 22° |
| 2026-04-26 23:18 | -14.32767 | -148.23120 | 36620 ft | 506 kts | 21° |
| 2026-04-26 23:19 | -14.29548 | -148.21758 | 36858 ft | 506 kts | 21° |
| 2026-04-26 23:19 | -14.22998 | -148.18988 | 36901 ft | 510 kts | 21° |
| 2026-04-26 23:20 | -14.16432 | -148.16213 | 36901 ft | 510 kts | 21° |
| 2026-04-26 23:20 | -14.09862 | -148.13437 | 36898 ft | 510 kts | 21° |
| 2026-04-26 23:21 | -14.03318 | -148.10674 | 36898 ft | 510 kts | 21° |
| 2026-04-26 23:21 | -13.96745 | -148.07901 | 36897 ft | 510 kts | 21° |
| 2026-04-26 23:22 | -13.90163 | -148.05126 | 36898 ft | 510 kts | 21° |
| 2026-04-26 23:22 | -13.83580 | -148.02352 | 36897 ft | 511 kts | 21° |
| 2026-04-26 23:23 | -13.76993 | -147.99577 | 36898 ft | 511 kts | 21° |
| 2026-04-26 23:23 | -13.70449 | -147.96823 | 36896 ft | 511 kts | 22° |
| 2026-04-26 23:24 | -13.63869 | -147.94056 | 36895 ft | 511 kts | 21° |
| 2026-04-26 23:24 | -13.57287 | -147.91288 | 36893 ft | 511 kts | 22° |
| 2026-04-26 23:25 | -13.50698 | -147.88520 | 36891 ft | 511 kts | 22° |
| 2026-04-26 23:25 | -13.44114 | -147.85756 | 36890 ft | 511 kts | 22° |
| 2026-04-26 23:26 | -13.37523 | -147.82990 | 36895 ft | 512 kts | 22° |
| 2026-04-26 23:26 | -13.30973 | -147.80243 | 36889 ft | 512 kts | 22° |
| 2026-04-26 23:27 | -13.24368 | -147.77474 | 36889 ft | 512 kts | 22° |
| 2026-04-26 23:27 | -13.17773 | -147.74712 | 36886 ft | 512 kts | 22° |
| 2026-04-26 23:28 | -13.11167 | -147.71946 | 36886 ft | 512 kts | 22° |
| 2026-04-26 23:28 | -13.04563 | -147.69183 | 36886 ft | 512 kts | 22° |
| 2026-04-26 23:29 | -12.97956 | -147.66420 | 36887 ft | 512 kts | 22° |
| 2026-04-26 23:29 | -12.91392 | -147.63677 | 36885 ft | 513 kts | 22° |
| 2026-04-26 23:30 | -12.84783 | -147.60916 | 36882 ft | 513 kts | 22° |
| 2026-04-26 23:30 | -12.78168 | -147.58155 | 36883 ft | 513 kts | 22° |
| 2026-04-26 23:31 | -12.71548 | -147.55393 | 36887 ft | 513 kts | 22° |
| 2026-04-26 23:31 | -12.64932 | -147.52636 | 36879 ft | 516 kts | 22° |
| 2026-04-26 23:32 | -12.58193 | -147.49827 | 36868 ft | 526 kts | 22° |
| 2026-04-26 23:32 | -12.51459 | -147.47021 | 36874 ft | 525 kts | 22° |
| 2026-04-26 23:33 | -12.44688 | -147.44202 | 36873 ft | 525 kts | 22° |
| 2026-04-26 23:33 | -12.39024 | -147.41846 | 36869 ft | 525 kts | 22° |
| 2026-04-26 23:34 | -12.32307 | -147.39053 | 36869 ft | 524 kts | 22° |
| 2026-04-26 23:34 | -12.25536 | -147.36239 | 36871 ft | 524 kts | 22° |
| 2026-04-26 23:35 | -12.17671 | -147.32972 | 36867 ft | 524 kts | 22° |
| 2026-04-26 23:35 | -12.12013 | -147.30623 | 36864 ft | 524 kts | 22° |
| 2026-04-26 23:36 | -12.05254 | -147.27819 | 36864 ft | 524 kts | 22° |
| 2026-04-26 23:36 | -11.98542 | -147.25036 | 36864 ft | 523 kts | 22° |
| 2026-04-26 23:37 | -11.91792 | -147.22238 | 36865 ft | 523 kts | 22° |
| 2026-04-26 23:37 | -11.85040 | -147.19441 | 36864 ft | 523 kts | 22° |
| 2026-04-26 23:38 | -11.78284 | -147.16644 | 36864 ft | 523 kts | 22° |
| 2026-04-26 23:38 | -11.71537 | -147.13852 | 36866 ft | 523 kts | 22° |
| 2026-04-26 23:39 | -11.64788 | -147.11061 | 36863 ft | 523 kts | 22° |
| 2026-04-26 23:39 | -11.58086 | -147.08290 | 36866 ft | 523 kts | 22° |
| 2026-04-26 23:40 | -11.51337 | -147.05502 | 36857 ft | 523 kts | 22° |
| 2026-04-26 23:40 | -11.44588 | -147.02715 | 36859 ft | 523 kts | 22° |
| 2026-04-26 23:41 | -11.37835 | -146.99928 | 36858 ft | 522 kts | 22° |
| 2026-04-26 23:41 | -11.31136 | -146.97164 | 36860 ft | 522 kts | 22° |
| 2026-04-26 23:42 | -11.24399 | -146.94387 | 36859 ft | 522 kts | 23° |
| 2026-04-26 23:42 | -11.14286 | -146.90220 | 36859 ft | 522 kts | 23° |
| 2026-04-26 23:43 | -11.07549 | -146.87445 | 36860 ft | 522 kts | 23° |
| 2026-04-26 23:43 | -11.00809 | -146.84671 | 36858 ft | 522 kts | 23° |
| 2026-04-26 23:44 | -10.94072 | -146.81900 | 36856 ft | 522 kts | 23° |
| 2026-04-26 23:44 | -10.87384 | -146.79150 | 36854 ft | 522 kts | 23° |
| 2026-04-26 23:45 | -10.80641 | -146.76379 | 36853 ft | 521 kts | 23° |
| 2026-04-26 23:45 | -10.73914 | -146.73615 | 36854 ft | 521 kts | 23° |
| 2026-04-26 23:46 | -10.67181 | -146.70851 | 36854 ft | 521 kts | 23° |
| 2026-04-26 23:46 | -10.60448 | -146.68088 | 36853 ft | 521 kts | 22° |
| 2026-04-26 23:47 | -10.53718 | -146.65327 | 36850 ft | 521 kts | 22° |
| 2026-04-26 23:47 | -10.46988 | -146.62568 | 36851 ft | 521 kts | 22° |
| 2026-04-26 23:48 | -10.40265 | -146.59812 | 36852 ft | 521 kts | 22° |
| 2026-04-26 23:48 | -10.33582 | -146.57075 | 36849 ft | 521 kts | 22° |
| 2026-04-26 23:49 | -10.26866 | -146.54326 | 36847 ft | 520 kts | 22° |
| 2026-04-26 23:49 | -10.20142 | -146.51574 | 36843 ft | 520 kts | 22° |
| 2026-04-26 23:50 | -10.13425 | -146.48826 | 36843 ft | 520 kts | 22° |
| 2026-04-26 23:50 | -10.06713 | -146.46083 | 36841 ft | 520 kts | 22° |
| 2026-04-26 23:51 | -9.99993 | -146.43337 | 36843 ft | 520 kts | 22° |
| 2026-04-26 23:51 | -9.93274 | -146.40607 | 36841 ft | 520 kts | 22° |
| 2026-04-26 23:52 | -9.86547 | -146.37883 | 36843 ft | 520 kts | 22° |
| 2026-04-26 23:52 | -9.79819 | -146.35159 | 36843 ft | 520 kts | 22° |
| 2026-04-26 23:53 | -9.73094 | -146.32437 | 36841 ft | 520 kts | 22° |
| 2026-04-26 23:53 | -9.66410 | -146.29731 | 36841 ft | 520 kts | 22° |
| 2026-04-26 23:54 | -9.59684 | -146.27010 | 36841 ft | 520 kts | 22° |
| 2026-04-26 23:54 | -9.52951 | -146.24287 | 36841 ft | 520 kts | 22° |
| 2026-04-26 23:55 | -9.46220 | -146.21566 | 36838 ft | 520 kts | 22° |
| 2026-04-26 23:55 | -9.39490 | -146.18847 | 36839 ft | 520 kts | 22° |
| 2026-04-26 23:56 | -9.32807 | -146.16148 | 36838 ft | 520 kts | 22° |
| 2026-04-26 23:56 | -9.26086 | -146.13434 | 36834 ft | 520 kts | 22° |
| 2026-04-26 23:57 | -9.19358 | -146.10719 | 36834 ft | 520 kts | 22° |
| 2026-04-26 23:57 | -9.12636 | -146.08008 | 36834 ft | 520 kts | 22° |
| 2026-04-26 23:58 | -9.05908 | -146.05295 | 36836 ft | 520 kts | 22° |
| 2026-04-26 23:58 | -8.99180 | -146.02583 | 36837 ft | 520 kts | 22° |
| 2026-04-26 23:59 | -8.92504 | -145.99894 | 36830 ft | 520 kts | 22° |
| 2026-04-26 23:59 | -8.85773 | -145.97183 | 36828 ft | 519 kts | 22° |
| 2026-04-27 00:00 | -8.79062 | -145.94481 | 36829 ft | 519 kts | 22° |
| 2026-04-27 00:00 | -8.72337 | -145.91775 | 36830 ft | 519 kts | 22° |
| 2026-04-27 00:01 | -8.65617 | -145.89072 | 36828 ft | 519 kts | 22° |
| 2026-04-27 00:01 | -8.58953 | -145.86392 | 36829 ft | 519 kts | 22° |
| 2026-04-27 00:02 | -8.52243 | -145.83695 | 36824 ft | 519 kts | 22° |
| 2026-04-27 00:02 | -8.45538 | -145.81001 | 36826 ft | 518 kts | 22° |
| 2026-04-27 00:03 | -8.38838 | -145.78310 | 36828 ft | 518 kts | 22° |
| 2026-04-27 00:03 | -8.32130 | -145.75616 | 36824 ft | 518 kts | 22° |
| 2026-04-27 00:04 | -8.25435 | -145.72929 | 36824 ft | 518 kts | 22° |
| 2026-04-27 00:04 | -8.18723 | -145.70236 | 36826 ft | 518 kts | 22° |
| 2026-04-27 00:05 | -8.12015 | -145.67546 | 36824 ft | 518 kts | 21° |
| 2026-04-27 00:05 | -8.05309 | -145.64858 | 36818 ft | 518 kts | 22° |
| 2026-04-27 00:06 | -7.98619 | -145.62176 | 36824 ft | 518 kts | 22° |
| 2026-04-27 00:06 | -7.91969 | -145.59512 | 36821 ft | 517 kts | 21° |
| 2026-04-27 00:07 | -7.85276 | -145.56832 | 36823 ft | 517 kts | 21° |
| 2026-04-27 00:07 | -7.78582 | -145.54151 | 36820 ft | 517 kts | 21° |
| 2026-04-27 00:08 | -7.71897 | -145.51476 | 36819 ft | 517 kts | 21° |
| 2026-04-27 00:08 | -7.65203 | -145.48798 | 36821 ft | 516 kts | 21° |
| 2026-04-27 00:09 | -7.58523 | -145.46126 | 36818 ft | 516 kts | 21° |
| 2026-04-27 00:09 | -7.51888 | -145.43473 | 36819 ft | 516 kts | 21° |
| 2026-04-27 00:10 | -7.45211 | -145.40804 | 36814 ft | 516 kts | 21° |
| 2026-04-27 00:10 | -7.38539 | -145.38138 | 36815 ft | 515 kts | 21° |
| 2026-04-27 00:11 | -7.31901 | -145.35487 | 36815 ft | 515 kts | 21° |
| 2026-04-27 00:11 | -7.25242 | -145.32828 | 36817 ft | 514 kts | 21° |
| 2026-04-27 00:12 | -7.18593 | -145.30174 | 36816 ft | 514 kts | 21° |
| 2026-04-27 00:12 | -7.11945 | -145.27522 | 36815 ft | 514 kts | 20° |
| 2026-04-27 00:13 | -7.05294 | -145.24868 | 36813 ft | 513 kts | 20° |
| 2026-04-27 00:13 | -6.98655 | -145.22221 | 36813 ft | 513 kts | 20° |
| 2026-04-27 00:14 | -6.92018 | -145.19575 | 36815 ft | 513 kts | 20° |
| 2026-04-27 00:14 | -6.85373 | -145.16927 | 36816 ft | 513 kts | 20° |
| 2026-04-27 00:15 | -6.78768 | -145.14295 | 36816 ft | 513 kts | 20° |
| 2026-04-27 00:15 | -6.72093 | -145.11637 | 36815 ft | 513 kts | 20° |
| 2026-04-27 00:16 | -6.65503 | -145.09013 | 36814 ft | 512 kts | 20° |
| 2026-04-27 00:16 | -6.59983 | -145.06816 | 36811 ft | 512 kts | 20° |
| 2026-04-27 00:17 | -6.53347 | -145.04175 | 36810 ft | 512 kts | 20° |
| 2026-04-27 00:17 | -6.45626 | -145.01103 | 36809 ft | 512 kts | 20° |
| 2026-04-27 00:18 | -6.40062 | -144.98890 | 36811 ft | 512 kts | 20° |
| 2026-04-27 00:18 | -6.33468 | -144.96268 | 36808 ft | 512 kts | 20° |
| 2026-04-27 00:19 | -6.26832 | -144.93630 | 36812 ft | 512 kts | 20° |
| 2026-04-27 00:19 | -6.20225 | -144.91004 | 36812 ft | 512 kts | 20° |
| 2026-04-27 00:20 | -6.13599 | -144.88371 | 36812 ft | 512 kts | 19° |
| 2026-04-27 00:20 | -6.06949 | -144.85730 | 36813 ft | 512 kts | 19° |
| 2026-04-27 00:21 | -6.00308 | -144.83092 | 36811 ft | 512 kts | 19° |
| 2026-04-27 00:21 | -5.93729 | -144.80481 | 36808 ft | 512 kts | 19° |
| 2026-04-27 00:22 | -5.87103 | -144.77851 | 36810 ft | 512 kts | 19° |
| 2026-04-27 00:22 | -5.80470 | -144.75219 | 36809 ft | 512 kts | 19° |
| 2026-04-27 00:23 | -5.73844 | -144.72591 | 36809 ft | 512 kts | 19° |
| 2026-04-27 00:23 | -5.67217 | -144.69963 | 36810 ft | 512 kts | 19° |
| 2026-04-27 00:24 | -5.60634 | -144.67352 | 36810 ft | 511 kts | 19° |
| 2026-04-27 00:24 | -5.54005 | -144.64725 | 36811 ft | 511 kts | 19° |
| 2026-04-27 00:25 | -5.47389 | -144.62103 | 36806 ft | 512 kts | 19° |
| 2026-04-27 00:25 | -5.40761 | -144.59477 | 36806 ft | 512 kts | 19° |
| 2026-04-27 00:26 | -5.34142 | -144.56855 | 36811 ft | 512 kts | 19° |
| 2026-04-27 00:26 | -5.27512 | -144.54230 | 36808 ft | 512 kts | 19° |
| 2026-04-27 00:27 | -5.20871 | -144.51601 | 36804 ft | 512 kts | 18° |
| 2026-04-27 00:27 | -5.14290 | -144.48996 | 36805 ft | 512 kts | 18° |
| 2026-04-27 00:28 | -5.07651 | -144.46369 | 36805 ft | 512 kts | 18° |
| 2026-04-27 00:28 | -5.01013 | -144.43743 | 36805 ft | 512 kts | 18° |
| 2026-04-27 00:29 | -4.94372 | -144.41110 | 36806 ft | 512 kts | 18° |
| 2026-04-27 00:29 | -4.87782 | -144.38476 | 36802 ft | 512 kts | 18° |
| 2026-04-27 00:30 | -4.81156 | -144.35829 | 36815 ft | 513 kts | 18° |
| 2026-04-27 00:30 | -4.74514 | -144.33180 | 36800 ft | 513 kts | 18° |
| 2026-04-27 00:31 | -4.67875 | -144.30535 | 36800 ft | 513 kts | 18° |
| 2026-04-27 00:31 | -4.61263 | -144.27900 | 36800 ft | 513 kts | 18° |
| 2026-04-27 00:32 | -4.54622 | -144.25255 | 36800 ft | 513 kts | 18° |
| 2026-04-27 00:32 | -4.47973 | -144.22608 | 36809 ft | 513 kts | 18° |
| 2026-04-27 00:33 | -4.41334 | -144.19964 | 36798 ft | 514 kts | 18° |
| 2026-04-27 00:33 | -4.34680 | -144.17315 | 36810 ft | 514 kts | 18° |
| 2026-04-27 00:34 | -4.28070 | -144.14684 | 36805 ft | 514 kts | 18° |
| 2026-04-27 00:34 | -4.21415 | -144.12036 | 36801 ft | 514 kts | 18° |
| 2026-04-27 00:35 | -4.14758 | -144.09387 | 36805 ft | 514 kts | 17° |
| 2026-04-27 00:35 | -4.08094 | -144.06737 | 36802 ft | 515 kts | 17° |
| 2026-04-27 00:36 | -4.01475 | -144.04104 | 36803 ft | 515 kts | 17° |
| 2026-04-27 00:36 | -3.94808 | -144.01453 | 36805 ft | 515 kts | 17° |
| 2026-04-27 00:37 | -3.88139 | -143.98802 | 36804 ft | 515 kts | 17° |
| 2026-04-27 00:37 | -3.81477 | -143.96153 | 36811 ft | 515 kts | 17° |
| 2026-04-27 00:38 | -3.74801 | -143.93500 | 36800 ft | 515 kts | 17° |
| 2026-04-27 00:38 | -3.68132 | -143.90850 | 36802 ft | 515 kts | 17° |
| 2026-04-27 00:39 | -3.61498 | -143.88214 | 36796 ft | 515 kts | 17° |
| 2026-04-27 00:39 | -3.54824 | -143.85563 | 36803 ft | 516 kts | 17° |
| 2026-04-27 00:40 | -3.48148 | -143.82911 | 36806 ft | 516 kts | 17° |
| 2026-04-27 00:40 | -3.41475 | -143.80261 | 36796 ft | 516 kts | 17° |
| 2026-04-27 00:41 | -3.34786 | -143.77605 | 36791 ft | 516 kts | 17° |
| 2026-04-27 00:41 | -3.28103 | -143.74952 | 36795 ft | 516 kts | 17° |
| 2026-04-27 00:42 | -3.21420 | -143.72299 | 36794 ft | 516 kts | 16° |
| 2026-04-27 00:42 | -3.14783 | -143.69664 | 36802 ft | 516 kts | 16° |
| 2026-04-27 00:43 | -3.08094 | -143.67010 | 36793 ft | 516 kts | 16° |
| 2026-04-27 00:43 | -3.01408 | -143.64357 | 36796 ft | 516 kts | 16° |
| 2026-04-27 00:44 | -2.94726 | -143.61706 | 36803 ft | 516 kts | 16° |
| 2026-04-27 00:44 | -2.88047 | -143.59056 | 36799 ft | 516 kts | 16° |
| 2026-04-27 00:45 | -2.81369 | -143.56408 | 36801 ft | 516 kts | 16° |
| 2026-04-27 00:45 | -2.74690 | -143.53759 | 36801 ft | 516 kts | 16° |
| 2026-04-27 00:46 | -2.68044 | -143.51123 | 36799 ft | 517 kts | 16° |
| 2026-04-27 00:46 | -2.61356 | -143.48472 | 36800 ft | 517 kts | 16° |
| 2026-04-27 00:47 | -2.54669 | -143.45820 | 36799 ft | 517 kts | 16° |
| 2026-04-27 00:47 | -2.47989 | -143.43172 | 36803 ft | 517 kts | 16° |
| 2026-04-27 00:48 | -2.41291 | -143.40517 | 36799 ft | 516 kts | 16° |
| 2026-04-27 00:48 | -2.34603 | -143.37867 | 36803 ft | 517 kts | 16° |
| 2026-04-27 00:49 | -2.27923 | -143.35220 | 36800 ft | 516 kts | 16° |
| 2026-04-27 00:49 | -2.21276 | -143.32586 | 36798 ft | 516 kts | 16° |
| 2026-04-27 00:50 | -2.11247 | -143.28613 | 36796 ft | 516 kts | 16° |
| 2026-04-27 00:51 | -2.04571 | -143.25968 | 36797 ft | 516 kts | 16° |
| 2026-04-27 00:51 | -1.97883 | -143.23319 | 36800 ft | 516 kts | 16° |
| 2026-04-27 00:52 | -1.91238 | -143.20687 | 36801 ft | 516 kts | 16° |
| 2026-04-27 00:52 | -1.84562 | -143.18043 | 36797 ft | 516 kts | 16° |
| 2026-04-27 00:53 | -1.77885 | -143.15398 | 36797 ft | 516 kts | 16° |
| 2026-04-27 00:53 | -1.71213 | -143.12756 | 36809 ft | 516 kts | 16° |
| 2026-04-27 00:54 | -1.64543 | -143.10115 | 36799 ft | 516 kts | 16° |
| 2026-04-27 00:54 | -1.57870 | -143.07473 | 36798 ft | 515 kts | 16° |
| 2026-04-27 00:55 | -1.51207 | -143.04835 | 36806 ft | 514 kts | 16° |
| 2026-04-27 00:55 | -1.44546 | -143.02198 | 36799 ft | 514 kts | 16° |
| 2026-04-27 00:56 | -1.37901 | -142.99568 | 36798 ft | 513 kts | 16° |
| 2026-04-27 00:56 | -1.31304 | -142.96957 | 36801 ft | 513 kts | 16° |
| 2026-04-27 00:57 | -1.24666 | -142.94330 | 36803 ft | 512 kts | 17° |
| 2026-04-27 00:57 | -1.18022 | -142.91700 | 36802 ft | 512 kts | 17° |
| 2026-04-27 00:58 | -1.11437 | -142.89094 | 36802 ft | 512 kts | 17° |
| 2026-04-27 00:58 | -1.04810 | -142.86471 | 36797 ft | 512 kts | 17° |
| 2026-04-27 00:59 | -0.98186 | -142.83850 | 36798 ft | 511 kts | 17° |
| 2026-04-27 00:59 | -0.91569 | -142.81232 | 36801 ft | 511 kts | 17° |
| 2026-04-27 01:00 | -0.84954 | -142.78614 | 36804 ft | 511 kts | 17° |
| 2026-04-27 01:00 | -0.78331 | -142.75994 | 36801 ft | 511 kts | 17° |
| 2026-04-27 01:01 | -0.71724 | -142.73380 | 36803 ft | 511 kts | 17° |
| 2026-04-27 01:01 | -0.65110 | -142.70763 | 36801 ft | 511 kts | 17° |
| 2026-04-27 01:02 | -0.59617 | -142.68590 | 36800 ft | 511 kts | 17° |
| 2026-04-27 01:02 | -0.53008 | -142.65975 | 36800 ft | 510 kts | 17° |
| 2026-04-27 01:03 | -0.46395 | -142.63359 | 36802 ft | 510 kts | 17° |
| 2026-04-27 01:03 | -0.39795 | -142.60748 | 36802 ft | 510 kts | 17° |
| 2026-04-27 01:04 | -0.33220 | -142.58147 | 36801 ft | 510 kts | 17° |
| 2026-04-27 01:04 | -0.26631 | -142.55540 | 36804 ft | 509 kts | 17° |
| 2026-04-27 01:05 | -0.20033 | -142.52931 | 36804 ft | 509 kts | 17° |
| 2026-04-27 01:05 | -0.13443 | -142.50324 | 36803 ft | 509 kts | 17° |
| 2026-04-27 01:06 | -0.06890 | -142.47732 | 36799 ft | 509 kts | 17° |
| 2026-04-27 01:06 | -0.00302 | -142.45127 | 36802 ft | 509 kts | 17° |
| 2026-04-27 01:07 | 0.06291 | -142.42541 | 36801 ft | 508 kts | 17° |
| 2026-04-27 01:07 | 0.12889 | -142.39974 | 36801 ft | 508 kts | 17° |
| 2026-04-27 01:08 | 0.19481 | -142.37408 | 36804 ft | 508 kts | 17° |
| 2026-04-27 01:08 | 0.26067 | -142.34842 | 36798 ft | 508 kts | 17° |
| 2026-04-27 01:09 | 0.32649 | -142.32275 | 36798 ft | 508 kts | 17° |
| 2026-04-27 01:09 | 0.39196 | -142.29722 | 36803 ft | 508 kts | 17° |
| 2026-04-27 01:10 | 0.45779 | -142.27154 | 36801 ft | 508 kts | 17° |
| 2026-04-27 01:10 | 0.52357 | -142.24589 | 36800 ft | 508 kts | 17° |
| 2026-04-27 01:11 | 0.58936 | -142.22023 | 36801 ft | 508 kts | 17° |
| 2026-04-27 01:11 | 0.65520 | -142.19456 | 36802 ft | 507 kts | 17° |
| 2026-04-27 01:12 | 0.72094 | -142.16892 | 36801 ft | 507 kts | 17° |
| 2026-04-27 01:12 | 0.78679 | -142.14323 | 36802 ft | 507 kts | 17° |
| 2026-04-27 01:13 | 0.85254 | -142.11759 | 36800 ft | 507 kts | 17° |
| 2026-04-27 01:13 | 0.91832 | -142.09193 | 36801 ft | 507 kts | 17° |
| 2026-04-27 01:14 | 0.98410 | -142.06628 | 36802 ft | 507 kts | 17° |
| 2026-04-27 01:14 | 1.04990 | -142.04061 | 36800 ft | 507 kts | 17° |
| 2026-04-27 01:15 | 1.11527 | -142.01511 | 36801 ft | 507 kts | 16° |
| 2026-04-27 01:15 | 1.18106 | -141.98944 | 36804 ft | 507 kts | 16° |
| 2026-04-27 01:16 | 1.24692 | -141.96375 | 36802 ft | 507 kts | 16° |
| 2026-04-27 01:16 | 1.31274 | -141.93807 | 36802 ft | 507 kts | 16° |
| 2026-04-27 01:17 | 1.37855 | -141.91239 | 36801 ft | 507 kts | 16° |
| 2026-04-27 01:17 | 1.44391 | -141.88689 | 36800 ft | 507 kts | 16° |
| 2026-04-27 01:18 | 1.50978 | -141.86118 | 36795 ft | 507 kts | 16° |
| 2026-04-27 01:18 | 1.57555 | -141.83551 | 36798 ft | 507 kts | 16° |
| 2026-04-27 01:19 | 1.64139 | -141.80982 | 36800 ft | 507 kts | 16° |
| 2026-04-27 01:19 | 1.70711 | -141.78417 | 36800 ft | 507 kts | 16° |
| 2026-04-27 01:20 | 1.77285 | -141.75851 | 36804 ft | 507 kts | 16° |
| 2026-04-27 01:20 | 1.83812 | -141.73303 | 36798 ft | 507 kts | 16° |
| 2026-04-27 01:21 | 1.90387 | -141.70736 | 36801 ft | 507 kts | 16° |
| 2026-04-27 01:21 | 1.96971 | -141.68165 | 36803 ft | 506 kts | 16° |
| 2026-04-27 01:22 | 2.03499 | -141.65616 | 36799 ft | 506 kts | 16° |
| 2026-04-27 01:22 | 2.10096 | -141.63040 | 36803 ft | 505 kts | 16° |
| 2026-04-27 01:23 | 2.16612 | -141.60495 | 36801 ft | 505 kts | 16° |
| 2026-04-27 01:23 | 2.23153 | -141.57940 | 36805 ft | 504 kts | 17° |
| 2026-04-27 01:24 | 2.29677 | -141.55392 | 36803 ft | 503 kts | 17° |
| 2026-04-27 01:24 | 2.36203 | -141.52842 | 36803 ft | 502 kts | 17° |
| 2026-04-27 01:25 | 2.42717 | -141.50297 | 36805 ft | 502 kts | 17° |
| 2026-04-27 01:25 | 2.49200 | -141.47764 | 36805 ft | 502 kts | 17° |
| 2026-04-27 01:26 | 2.55709 | -141.45221 | 36807 ft | 502 kts | 17° |
| 2026-04-27 01:26 | 2.62211 | -141.42680 | 36803 ft | 502 kts | 17° |
| 2026-04-27 01:27 | 2.68712 | -141.40139 | 36802 ft | 501 kts | 17° |
| 2026-04-27 01:27 | 2.75225 | -141.37593 | 36804 ft | 501 kts | 16° |
| 2026-04-27 01:28 | 2.81722 | -141.35053 | 36804 ft | 501 kts | 16° |
| 2026-04-27 01:28 | 2.88224 | -141.32511 | 36805 ft | 501 kts | 16° |
| 2026-04-27 01:29 | 2.94721 | -141.29970 | 36805 ft | 502 kts | 16° |
| 2026-04-27 01:29 | 3.01192 | -141.27440 | 36802 ft | 502 kts | 16° |
| 2026-04-27 01:30 | 3.07696 | -141.24896 | 36802 ft | 502 kts | 16° |
| 2026-04-27 01:30 | 3.14206 | -141.22349 | 36804 ft | 502 kts | 16° |
| 2026-04-27 01:31 | 3.20708 | -141.19805 | 36806 ft | 502 kts | 16° |
| 2026-04-27 01:31 | 3.27216 | -141.17259 | 36805 ft | 502 kts | 16° |
| 2026-04-27 01:32 | 3.33726 | -141.14711 | 36805 ft | 502 kts | 16° |
| 2026-04-27 01:32 | 3.40231 | -141.12165 | 36807 ft | 502 kts | 16° |
| 2026-04-27 01:33 | 3.46739 | -141.09618 | 36801 ft | 502 kts | 17° |
| 2026-04-27 01:33 | 3.53197 | -141.07030 | 36807 ft | 504 kts | 19° |
| 2026-04-27 01:34 | 3.59552 | -141.04035 | 36809 ft | 505 kts | 21° |
| 2026-04-27 01:34 | 3.65873 | -141.00957 | 36811 ft | 505 kts | 21° |
| 2026-04-27 01:35 | 3.72218 | -140.97929 | 36811 ft | 505 kts | 20° |
| 2026-04-27 01:35 | 3.78574 | -140.94943 | 36805 ft | 505 kts | 20° |
| 2026-04-27 01:36 | 3.84940 | -140.91963 | 36808 ft | 505 kts | 20° |
| 2026-04-27 01:36 | 3.91303 | -140.88983 | 36811 ft | 505 kts | 20° |
| 2026-04-27 01:37 | 3.97671 | -140.85997 | 36812 ft | 505 kts | 21° |
| 2026-04-27 01:37 | 4.04034 | -140.83013 | 36812 ft | 505 kts | 21° |
| 2026-04-27 01:38 | 4.10403 | -140.80025 | 36808 ft | 505 kts | 21° |
| 2026-04-27 01:38 | 4.16734 | -140.77054 | 36811 ft | 505 kts | 21° |
| 2026-04-27 01:39 | 4.23101 | -140.74066 | 36810 ft | 505 kts | 21° |
| 2026-04-27 01:39 | 4.29464 | -140.71079 | 36813 ft | 505 kts | 21° |
| 2026-04-27 01:40 | 4.35831 | -140.68090 | 36814 ft | 505 kts | 21° |
| 2026-04-27 01:40 | 4.42190 | -140.65104 | 36810 ft | 505 kts | 21° |
| 2026-04-27 01:41 | 4.48558 | -140.62114 | 36809 ft | 505 kts | 21° |
| 2026-04-27 01:41 | 4.54926 | -140.59122 | 36813 ft | 505 kts | 20° |
| 2026-04-27 01:42 | 4.61300 | -140.56167 | 36811 ft | 504 kts | 20° |
| 2026-04-27 01:42 | 4.67679 | -140.53209 | 36816 ft | 505 kts | 20° |
| 2026-04-27 01:43 | 4.74005 | -140.50249 | 36813 ft | 505 kts | 20° |
| 2026-04-27 01:43 | 4.80377 | -140.47254 | 36813 ft | 505 kts | 21° |
| 2026-04-27 01:44 | 4.86741 | -140.44260 | 36813 ft | 505 kts | 21° |
| 2026-04-27 01:44 | 4.93107 | -140.41265 | 36815 ft | 505 kts | 21° |
| 2026-04-27 01:45 | 4.99470 | -140.38271 | 36814 ft | 505 kts | 21° |
| 2026-04-27 01:45 | 5.05802 | -140.35292 | 36815 ft | 505 kts | 21° |
| 2026-04-27 01:46 | 5.12171 | -140.32295 | 36817 ft | 505 kts | 21° |
| 2026-04-27 01:46 | 5.17474 | -140.29799 | 36816 ft | 505 kts | 21° |
| 2026-04-27 01:47 | 5.23843 | -140.26800 | 36815 ft | 505 kts | 21° |
| 2026-04-27 01:47 | 5.30201 | -140.23806 | 36817 ft | 505 kts | 21° |
| 2026-04-27 01:48 | 5.36564 | -140.20808 | 36814 ft | 505 kts | 21° |
| 2026-04-27 01:48 | 5.42922 | -140.17813 | 36816 ft | 504 kts | 21° |
| 2026-04-27 01:49 | 5.49280 | -140.14817 | 36818 ft | 504 kts | 21° |
| 2026-04-27 01:49 | 5.55594 | -140.11841 | 36818 ft | 504 kts | 21° |
| 2026-04-27 01:50 | 5.61944 | -140.08847 | 36824 ft | 504 kts | 21° |
| 2026-04-27 01:50 | 5.68296 | -140.05851 | 36820 ft | 504 kts | 20° |
| 2026-04-27 01:51 | 5.74646 | -140.02856 | 36819 ft | 504 kts | 20° |
| 2026-04-27 01:51 | 5.80990 | -139.99863 | 36822 ft | 504 kts | 20° |
| 2026-04-27 01:52 | 5.87342 | -139.96866 | 36818 ft | 504 kts | 20° |
| 2026-04-27 01:52 | 5.93709 | -139.93861 | 36827 ft | 504 kts | 20° |
| 2026-04-27 01:53 | 6.00060 | -139.90862 | 36825 ft | 505 kts | 20° |
| 2026-04-27 01:53 | 6.06415 | -139.87860 | 36821 ft | 505 kts | 20° |
| 2026-04-27 01:54 | 6.12777 | -139.84855 | 36824 ft | 505 kts | 20° |
| 2026-04-27 01:54 | 6.19099 | -139.81868 | 36825 ft | 505 kts | 20° |
| 2026-04-27 01:55 | 6.25454 | -139.78864 | 36821 ft | 505 kts | 20° |
| 2026-04-27 01:55 | 6.31821 | -139.75854 | 36827 ft | 505 kts | 20° |
| 2026-04-27 01:56 | 6.41374 | -139.71336 | 36831 ft | 505 kts | 20° |
| 2026-04-27 01:56 | 6.47742 | -139.68324 | 36825 ft | 506 kts | 20° |
| 2026-04-27 01:57 | 6.54071 | -139.65328 | 36824 ft | 506 kts | 20° |
| 2026-04-27 01:57 | 6.60444 | -139.62311 | 36826 ft | 506 kts | 20° |
| 2026-04-27 01:58 | 6.66819 | -139.59293 | 36829 ft | 506 kts | 19° |
| 2026-04-27 01:58 | 6.73195 | -139.56273 | 36822 ft | 506 kts | 19° |
| 2026-04-27 01:59 | 6.79564 | -139.53256 | 36830 ft | 506 kts | 19° |
| 2026-04-27 01:59 | 6.85906 | -139.50250 | 36835 ft | 506 kts | 19° |
| 2026-04-27 02:00 | 6.92281 | -139.47228 | 36840 ft | 506 kts | 19° |
| 2026-04-27 02:00 | 6.98647 | -139.44209 | 36833 ft | 506 kts | 19° |
| 2026-04-27 02:01 | 7.05025 | -139.41184 | 36837 ft | 506 kts | 19° |
| 2026-04-27 02:01 | 7.11394 | -139.38161 | 36834 ft | 506 kts | 19° |
| 2026-04-27 02:02 | 7.17773 | -139.35134 | 36833 ft | 506 kts | 19° |
| 2026-04-27 02:02 | 7.24150 | -139.32106 | 36836 ft | 506 kts | 19° |
| 2026-04-27 02:03 | 7.30488 | -139.29096 | 36837 ft | 506 kts | 19° |
| 2026-04-27 02:03 | 7.36859 | -139.26069 | 36839 ft | 506 kts | 19° |
| 2026-04-27 02:04 | 7.43239 | -139.23037 | 36846 ft | 507 kts | 19° |
| 2026-04-27 02:04 | 7.49623 | -139.20002 | 36842 ft | 507 kts | 19° |
| 2026-04-27 02:05 | 7.56009 | -139.16965 | 36854 ft | 507 kts | 19° |
| 2026-04-27 02:05 | 7.62359 | -139.13944 | 36840 ft | 507 kts | 19° |
| 2026-04-27 02:06 | 7.68752 | -139.10902 | 36850 ft | 507 kts | 19° |
| 2026-04-27 02:06 | 7.75141 | -139.07860 | 36848 ft | 508 kts | 19° |
| 2026-04-27 02:07 | 7.81540 | -139.04813 | 36843 ft | 508 kts | 19° |
| 2026-04-27 02:07 | 7.87889 | -139.01789 | 36845 ft | 508 kts | 19° |
| 2026-04-27 02:08 | 7.94291 | -138.98738 | 36850 ft | 508 kts | 19° |
| 2026-04-27 02:08 | 8.00672 | -138.95673 | 36857 ft | 508 kts | 20° |
| 2026-04-27 02:09 | 8.07059 | -138.92580 | 36850 ft | 508 kts | 20° |
| 2026-04-27 02:09 | 8.13430 | -138.89521 | 36846 ft | 508 kts | 20° |
| 2026-04-27 02:10 | 8.19828 | -138.86465 | 36845 ft | 509 kts | 20° |
| 2026-04-27 02:10 | 8.26226 | -138.83413 | 36847 ft | 509 kts | 20° |
| 2026-04-27 02:11 | 8.32635 | -138.80354 | 36858 ft | 509 kts | 20° |
| 2026-04-27 02:11 | 8.39045 | -138.77292 | 36858 ft | 509 kts | 20° |
| 2026-04-27 02:12 | 8.45455 | -138.74229 | 36850 ft | 510 kts | 20° |
| 2026-04-27 02:12 | 8.51863 | -138.71165 | 36848 ft | 510 kts | 20° |
| 2026-04-27 02:13 | 8.58280 | -138.68096 | 36862 ft | 510 kts | 20° |
| 2026-04-27 02:13 | 8.64704 | -138.65023 | 36857 ft | 510 kts | 20° |
| 2026-04-27 02:14 | 8.71131 | -138.61948 | 36862 ft | 511 kts | 20° |
| 2026-04-27 02:14 | 8.77554 | -138.58872 | 36850 ft | 511 kts | 20° |
| 2026-04-27 02:15 | 8.83979 | -138.55795 | 36857 ft | 511 kts | 20° |
| 2026-04-27 02:15 | 8.90413 | -138.52712 | 36865 ft | 512 kts | 20° |
| 2026-04-27 02:16 | 8.96848 | -138.49628 | 36862 ft | 512 kts | 20° |
| 2026-04-27 02:16 | 9.03258 | -138.46554 | 36853 ft | 512 kts | 20° |
| 2026-04-27 02:17 | 9.09715 | -138.43457 | 36855 ft | 513 kts | 20° |
| 2026-04-27 02:17 | 9.16163 | -138.40363 | 36864 ft | 513 kts | 20° |
| 2026-04-27 02:18 | 9.22588 | -138.37279 | 36863 ft | 514 kts | 20° |
| 2026-04-27 02:18 | 9.29052 | -138.34174 | 36868 ft | 514 kts | 20° |
| 2026-04-27 02:19 | 9.35513 | -138.31070 | 36868 ft | 514 kts | 20° |
| 2026-04-27 02:19 | 9.41987 | -138.27958 | 36868 ft | 515 kts | 20° |
| 2026-04-27 02:20 | 9.48460 | -138.24845 | 36867 ft | 515 kts | 20° |
| 2026-04-27 02:20 | 9.54947 | -138.21724 | 36870 ft | 516 kts | 20° |
| 2026-04-27 02:21 | 9.61397 | -138.18620 | 36869 ft | 516 kts | 20° |
| 2026-04-27 02:21 | 9.67888 | -138.15494 | 36872 ft | 517 kts | 20° |
| 2026-04-27 02:22 | 9.74393 | -138.12361 | 36870 ft | 517 kts | 20° |
| 2026-04-27 02:22 | 9.80893 | -138.09228 | 36873 ft | 518 kts | 20° |
| 2026-04-27 02:23 | 9.87406 | -138.06088 | 36873 ft | 518 kts | 20° |
| 2026-04-27 02:23 | 9.93912 | -138.02950 | 36872 ft | 518 kts | 20° |
| 2026-04-27 02:24 | 10.00400 | -137.99705 | 36877 ft | 521 kts | 25° |
| 2026-04-27 02:24 | 10.06704 | -137.96017 | 36876 ft | 522 kts | 26° |
| 2026-04-27 02:25 | 10.12924 | -137.92277 | 36876 ft | 523 kts | 26° |
| 2026-04-27 02:25 | 10.19178 | -137.88502 | 36877 ft | 523 kts | 26° |
| 2026-04-27 02:26 | 10.25436 | -137.84733 | 36876 ft | 523 kts | 26° |
| 2026-04-27 02:26 | 10.31693 | -137.80969 | 36877 ft | 523 kts | 26° |
| 2026-04-27 02:27 | 10.37967 | -137.77195 | 36876 ft | 523 kts | 26° |
| 2026-04-27 02:27 | 10.44233 | -137.73424 | 36882 ft | 523 kts | 26° |
| 2026-04-27 02:28 | 10.50505 | -137.69647 | 36880 ft | 523 kts | 26° |
| 2026-04-27 02:28 | 10.56739 | -137.65891 | 36878 ft | 523 kts | 26° |
| 2026-04-27 02:29 | 10.63000 | -137.62117 | 36883 ft | 524 kts | 26° |
| 2026-04-27 02:29 | 10.69276 | -137.58333 | 36884 ft | 524 kts | 26° |
| 2026-04-27 02:30 | 10.75560 | -137.54542 | 36886 ft | 524 kts | 26° |
| 2026-04-27 02:30 | 10.81801 | -137.50775 | 36885 ft | 525 kts | 26° |
| 2026-04-27 02:31 | 10.88086 | -137.46979 | 36883 ft | 525 kts | 26° |
| 2026-04-27 02:31 | 10.93312 | -137.43821 | 36884 ft | 525 kts | 26° |
| 2026-04-27 02:32 | 10.99597 | -137.40022 | 36886 ft | 525 kts | 26° |
| 2026-04-27 02:32 | 11.05885 | -137.36219 | 36886 ft | 525 kts | 27° |
| 2026-04-27 02:33 | 11.12185 | -137.32408 | 36889 ft | 526 kts | 27° |
| 2026-04-27 02:33 | 11.18439 | -137.28621 | 36887 ft | 526 kts | 27° |
| 2026-04-27 02:34 | 11.24728 | -137.24812 | 36889 ft | 526 kts | 27° |
| 2026-04-27 02:34 | 11.31019 | -137.21000 | 36890 ft | 526 kts | 27° |
| 2026-04-27 02:35 | 11.37315 | -137.17182 | 36890 ft | 526 kts | 27° |
| 2026-04-27 02:35 | 11.43615 | -137.13361 | 36891 ft | 527 kts | 27° |
| 2026-04-27 02:36 | 11.49911 | -137.09539 | 36891 ft | 527 kts | 27° |
| 2026-04-27 02:36 | 11.56217 | -137.05710 | 36890 ft | 527 kts | 27° |
| 2026-04-27 02:37 | 11.62520 | -137.01880 | 36893 ft | 527 kts | 27° |
| 2026-04-27 02:37 | 11.68786 | -136.98071 | 36890 ft | 528 kts | 27° |
| 2026-04-27 02:38 | 11.75096 | -136.94233 | 36897 ft | 528 kts | 27° |
| 2026-04-27 02:38 | 11.81411 | -136.90390 | 36896 ft | 528 kts | 27° |
| 2026-04-27 02:39 | 11.87727 | -136.86544 | 36900 ft | 528 kts | 27° |
| 2026-04-27 02:39 | 11.94043 | -136.82696 | 36898 ft | 528 kts | 27° |
| 2026-04-27 02:40 | 12.00363 | -136.78843 | 36901 ft | 528 kts | 27° |
| 2026-04-27 02:40 | 12.06639 | -136.75016 | 36899 ft | 528 kts | 27° |
| 2026-04-27 02:41 | 12.12948 | -136.71166 | 36897 ft | 529 kts | 27° |
| 2026-04-27 02:41 | 12.19270 | -136.67306 | 36900 ft | 529 kts | 27° |
| 2026-04-27 02:42 | 12.25593 | -136.63442 | 36900 ft | 529 kts | 27° |
| 2026-04-27 02:42 | 12.31909 | -136.59582 | 36902 ft | 529 kts | 27° |
| 2026-04-27 02:43 | 12.38238 | -136.55710 | 36908 ft | 529 kts | 27° |
| 2026-04-27 02:43 | 12.44562 | -136.51841 | 36904 ft | 530 kts | 27° |
| 2026-04-27 02:44 | 12.45586 | -136.51214 | 36907 ft | 530 kts | 27° |